createdAt,value
2016-12-01T00:00:24.681Z,49.25
2016-12-01T00:01:24.381Z,49.56
2016-12-01T00:02:24.396Z,50.04
2016-12-01T00:03:24.727Z,50.04
2016-12-01T00:04:24.746Z,49.85
2016-12-01T00:05:24.443Z,49.37
2016-12-01T00:06:24.462Z,48.99
2016-12-01T00:07:24.793Z,48.99
2016-12-01T00:08:24.809Z,49.37
2016-12-01T00:09:24.509Z,49.37
2016-12-01T00:10:24.527Z,49.37
2016-12-01T00:11:24.540Z,49.37
2016-12-01T00:12:24.558Z,49.37
2016-12-01T00:13:24.888Z,49.65
2016-12-01T00:14:24.591Z,49.56
2016-12-01T00:15:24.605Z,49.56
2016-12-01T00:16:24.937Z,49.56
2016-12-01T00:17:24.957Z,50.23
2016-12-01T00:18:24.971Z,50.79
2016-12-01T00:19:24.672Z,50.13
2016-12-01T00:20:25.000Z,49.46
2016-12-01T00:21:25.015Z,49.46
2016-12-01T00:22:25.037Z,49.56
2016-12-01T00:23:25.051Z,49.56
2016-12-01T00:24:24.749Z,49.46
2016-12-01T00:25:24.768Z,49.65
2016-12-01T00:26:25.100Z,50.23
2016-12-01T00:27:25.113Z,50.32
2016-12-01T00:28:25.130Z,50.13
2016-12-01T00:29:24.829Z,50.32
2016-12-01T00:30:24.846Z,49.91
2016-12-01T00:31:25.178Z,49.94
2016-12-01T00:32:24.878Z,50.13
2016-12-01T00:33:25.211Z,50.1
2016-12-01T00:34:25.228Z,49.37
2016-12-01T00:35:24.927Z,49.82
2016-12-01T00:36:24.946Z,49.63
2016-12-01T00:37:24.959Z,49.25
2016-12-01T00:38:24.977Z,49.73
2016-12-01T00:39:25.307Z,50.29
2016-12-01T00:40:25.326Z,50.1
2016-12-01T00:41:25.023Z,50.29
2016-12-01T00:42:25.040Z,50.23
2016-12-01T00:43:25.063Z,49.27
2016-12-01T00:44:25.093Z,49.08
2016-12-01T00:45:25.087Z,49.18
2016-12-01T00:46:25.104Z,49.37
2016-12-01T00:47:25.119Z,48.99
2016-12-01T00:48:25.451Z,48.9
2016-12-01T00:49:25.468Z,48.99
2016-12-01T00:50:25.484Z,48.71
2016-12-01T00:51:25.501Z,48.99
2016-12-01T00:52:25.201Z,49.46
2016-12-01T00:53:25.216Z,48.99
2016-12-01T00:54:25.233Z,49.18
2016-12-01T00:55:25.249Z,48.9
2016-12-01T00:56:25.266Z,49.18
2016-12-01T00:57:25.602Z,48.8
2016-12-01T00:58:25.619Z,49.18
2016-12-01T00:59:25.627Z,49.27
2016-12-01T01:00:25.646Z,48.99
2016-12-01T01:01:25.347Z,48.96
2016-12-01T01:02:25.358Z,49.18
2016-12-01T01:03:25.378Z,49.46
2016-12-01T01:04:25.391Z,49.35
2016-12-01T01:05:25.747Z,49.82
2016-12-01T01:06:25.443Z,49.06
2016-12-01T01:07:25.440Z,48.96
2016-12-01T01:08:25.455Z,49.06
2016-12-01T01:09:25.473Z,49.27
2016-12-01T01:10:25.490Z,49.27
2016-12-01T01:11:25.504Z,49.44
2016-12-01T01:12:25.520Z,49.35
2016-12-01T01:13:25.853Z,49.54
2016-12-01T01:14:25.866Z,50.23
2016-12-01T01:15:25.568Z,49.91
2016-12-01T01:16:25.583Z,50.1
2016-12-01T01:17:25.599Z,50.39
2016-12-01T01:18:25.616Z,50.29
2016-12-01T01:19:25.632Z,50.29
2016-12-01T01:20:25.963Z,50.2
2016-12-01T01:21:25.663Z,50.48
2016-12-01T01:22:25.686Z,50.68
2016-12-01T01:23:25.694Z,51.25
2016-12-01T01:24:25.713Z,50.87
2016-12-01T01:25:25.725Z,51.15
2016-12-01T01:26:25.742Z,51.43
2016-12-01T01:27:25.782Z,51.82
2016-12-01T01:28:25.793Z,51.43
2016-12-01T01:29:26.110Z,51.34
2016-12-01T01:30:25.816Z,51.91
2016-12-01T01:31:26.146Z,51.62
2016-12-01T01:32:26.158Z,51.72
2016-12-01T01:33:25.858Z,51.34
2016-12-01T01:34:25.870Z,51.34
2016-12-01T01:35:26.203Z,51.72
2016-12-01T01:36:26.219Z,51.72
2016-12-01T01:37:26.237Z,52.1
2016-12-01T01:38:26.251Z,52.1
2016-12-01T01:39:25.953Z,52.2
2016-12-01T01:40:25.966Z,52.2
2016-12-01T01:41:25.986Z,52.01
2016-12-01T01:42:26.317Z,52.1
2016-12-01T01:43:26.331Z,52.2
2016-12-01T01:44:26.347Z,52.2
2016-12-01T01:45:26.046Z,52.39
2016-12-01T01:46:26.064Z,52.48
2016-12-01T01:47:26.078Z,52.2
2016-12-01T01:48:26.412Z,52.01
2016-12-01T01:49:26.449Z,52.2
2016-12-01T01:50:26.144Z,52.01
2016-12-01T01:51:26.460Z,51.91
2016-12-01T01:52:26.472Z,53.05
2016-12-01T01:53:26.173Z,52.93
2016-12-01T01:54:26.191Z,52.86
2016-12-01T01:55:26.523Z,53.43
2016-12-01T01:56:26.538Z,53.31
2016-12-01T01:57:26.269Z,52.74
2016-12-01T01:58:26.568Z,52.86
2016-12-01T01:59:26.272Z,52.84
2016-12-01T02:00:26.602Z,53.03
2016-12-01T02:01:26.300Z,52.86
2016-12-01T02:02:26.315Z,52.74
2016-12-01T02:03:26.649Z,52.86
2016-12-01T02:04:26.348Z,53.05
2016-12-01T02:05:26.678Z,53.22
2016-12-01T02:06:26.693Z,53.22
2016-12-01T02:07:26.396Z,53.31
2016-12-01T02:08:26.411Z,53.22
2016-12-01T02:09:26.746Z,53.59
2016-12-01T02:10:26.757Z,53.59
2016-12-01T02:11:26.776Z,53.69
2016-12-01T02:12:26.494Z,53.59
2016-12-01T02:13:26.805Z,53.69
2016-12-01T02:14:26.505Z,53.12
2016-12-01T02:15:26.839Z,53.12
2016-12-01T02:16:26.852Z,52.84
2016-12-01T02:17:26.554Z,53.12
2016-12-01T02:18:26.882Z,53.22
2016-12-01T02:19:26.901Z,53.69
2016-12-01T02:20:26.598Z,53.78
2016-12-01T02:21:26.938Z,53.41
2016-12-01T02:22:26.628Z,53.69
2016-12-01T02:23:26.960Z,53.03
2016-12-01T02:24:26.659Z,53.5
2016-12-01T02:25:26.990Z,53.59
2016-12-01T02:26:27.008Z,53.5
2016-12-01T02:27:26.705Z,54.17
2016-12-01T02:28:27.040Z,53.69
2016-12-01T02:29:26.738Z,53.69
2016-12-01T02:30:26.752Z,53.88
2016-12-01T02:31:27.084Z,53.59
2016-12-01T02:32:27.101Z,53.41
2016-12-01T02:33:26.800Z,53.69
2016-12-01T02:34:26.817Z,53.78
2016-12-01T02:35:27.147Z,53.5
2016-12-01T02:36:26.848Z,53.59
2016-12-01T02:37:27.179Z,53.59
2016-12-01T02:38:26.877Z,53.22
2016-12-01T02:39:27.209Z,52.93
2016-12-01T02:40:27.354Z,52.84
2016-12-01T02:41:26.925Z,52.84
2016-12-01T02:42:27.254Z,52.93
2016-12-01T02:43:27.276Z,52.84
2016-12-01T02:44:27.289Z,52.74
2016-12-01T02:45:27.300Z,52.74
2016-12-01T02:46:27.319Z,52.93
2016-12-01T02:47:27.026Z,53.03
2016-12-01T02:48:27.345Z,53
2016-12-01T02:49:27.364Z,52.93
2016-12-01T02:50:27.380Z,53.03
2016-12-01T02:51:27.398Z,52.36
2016-12-01T02:52:27.093Z,52.36
2016-12-01T02:53:27.108Z,52.84
2016-12-01T02:54:27.125Z,52.17
2016-12-01T02:55:27.462Z,52.17
2016-12-01T02:56:27.156Z,51.89
2016-12-01T02:57:27.170Z,51.98
2016-12-01T02:58:27.504Z,51.86
2016-12-01T02:59:27.201Z,52.91
2016-12-01T03:00:27.532Z,52.24
2016-12-01T03:01:27.546Z,52.17
2016-12-01T03:02:27.248Z,52.33
2016-12-01T03:03:27.262Z,52.24
2016-12-01T03:04:27.277Z,51.95
2016-12-01T03:05:27.628Z,51.95
2016-12-01T03:06:27.624Z,51.76
2016-12-01T03:07:27.638Z,52.14
2016-12-01T03:08:27.341Z,52.24
2016-12-01T03:09:27.693Z,51.95
2016-12-01T03:10:27.689Z,51.95
2016-12-01T03:11:27.384Z,52.05
2016-12-01T03:12:27.399Z,52.24
2016-12-01T03:13:27.733Z,51.95
2016-12-01T03:14:27.436Z,52.14
2016-12-01T03:15:27.455Z,52.14
2016-12-01T03:16:27.461Z,51.95
2016-12-01T03:17:27.796Z,51.48
2016-12-01T03:18:27.493Z,51.1
2016-12-01T03:19:27.840Z,51.48
2016-12-01T03:20:27.522Z,51.48
2016-12-01T03:21:27.538Z,51.57
2016-12-01T03:22:27.868Z,51.57
2016-12-01T03:23:27.884Z,51.57
2016-12-01T03:24:27.919Z,51.48
2016-12-01T03:25:27.915Z,51.48
2016-12-01T03:26:27.931Z,51.48
2016-12-01T03:27:27.630Z,51.76
2016-12-01T03:28:27.646Z,51.48
2016-12-01T03:29:27.658Z,51.67
2016-12-01T03:30:27.675Z,51.39
2016-12-01T03:31:27.691Z,51.29
2016-12-01T03:32:28.050Z,51.48
2016-12-01T03:33:28.037Z,51.48
2016-12-01T03:34:27.737Z,51.95
2016-12-01T03:35:27.781Z,52.33
2016-12-01T03:36:28.083Z,52.05
2016-12-01T03:37:27.783Z,52.14
2016-12-01T03:38:28.112Z,52.14
2016-12-01T03:39:27.818Z,52.14
2016-12-01T03:40:28.144Z,51.86
2016-12-01T03:41:27.843Z,52.43
2016-12-01T03:42:27.858Z,51.95
2016-12-01T03:43:28.192Z,51.95
2016-12-01T03:44:27.889Z,51.95
2016-12-01T03:45:27.902Z,51.95
2016-12-01T03:46:27.920Z,52.14
2016-12-01T03:47:27.933Z,52.33
2016-12-01T03:48:27.950Z,52.05
2016-12-01T03:49:27.966Z,52.33
2016-12-01T03:50:28.295Z,52.14
2016-12-01T03:51:28.311Z,52.14
2016-12-01T03:52:28.327Z,52.14
2016-12-01T03:53:28.038Z,51.95
2016-12-01T03:54:28.057Z,52.33
2016-12-01T03:55:28.369Z,52.53
2016-12-01T03:56:28.390Z,51.95
2016-12-01T03:57:28.087Z,51.57
2016-12-01T03:58:28.100Z,51.48
2016-12-01T03:59:28.432Z,52.43
2016-12-01T04:00:28.140Z,52.14
2016-12-01T04:01:28.151Z,51.7
2016-12-01T04:02:28.163Z,51.57
2016-12-01T04:03:28.175Z,51.39
2016-12-01T04:04:28.191Z,51.6
2016-12-01T04:05:28.528Z,51.51
2016-12-01T04:06:28.537Z,51.79
2016-12-01T04:07:28.550Z,51.51
2016-12-01T04:08:28.568Z,51.31
2016-12-01T04:09:28.586Z,52.36
2016-12-01T04:10:28.281Z,51.95
2016-12-01T04:11:28.298Z,52.05
2016-12-01T04:12:28.314Z,52.17
2016-12-01T04:13:28.327Z,52.17
2016-12-01T04:14:28.657Z,52.08
2016-12-01T04:15:28.360Z,52.17
2016-12-01T04:16:28.391Z,52.43
2016-12-01T04:17:28.387Z,51.98
2016-12-01T04:18:28.737Z,52.05
2016-12-01T04:19:28.736Z,52.24
2016-12-01T04:20:28.431Z,52.17
2016-12-01T04:21:28.765Z,52.08
2016-12-01T04:22:28.485Z,52.33
2016-12-01T04:23:28.497Z,52.72
2016-12-01T04:24:28.807Z,52.93
2016-12-01T04:25:28.508Z,52.17
2016-12-01T04:26:28.839Z,51.98
2016-12-01T04:27:28.538Z,52.17
2016-12-01T04:28:28.554Z,51.6
2016-12-01T04:29:28.569Z,52.08
2016-12-01T04:30:28.584Z,51.98
2016-12-01T04:31:28.598Z,52.17
2016-12-01T04:32:28.616Z,52.17
2016-12-01T04:33:28.958Z,51.98
2016-12-01T04:34:28.648Z,52.26
2016-12-01T04:35:28.977Z,51.89
2016-12-01T04:36:28.990Z,52.17
2016-12-01T04:37:29.023Z,51.98
2016-12-01T04:38:29.023Z,52.45
2016-12-01T04:39:28.720Z,51.89
2016-12-01T04:40:28.738Z,51.31
2016-12-01T04:41:28.752Z,51.51
2016-12-01T04:42:29.082Z,51.6
2016-12-01T04:43:28.783Z,51.6
2016-12-01T04:44:28.897Z,51.12
2016-12-01T04:45:29.131Z,51.31
2016-12-01T04:46:29.148Z,51.7
2016-12-01T04:47:29.159Z,51.31
2016-12-01T04:48:29.173Z,51.89
2016-12-01T04:49:29.191Z,51.31
2016-12-01T04:50:29.207Z,51.51
2016-12-01T04:51:29.223Z,51.6
2016-12-01T04:52:28.923Z,51.6
2016-12-01T04:53:28.933Z,51.6
2016-12-01T04:54:29.269Z,51.31
2016-12-01T04:55:28.970Z,50.46
2016-12-01T04:56:28.981Z,50.46
2016-12-01T04:57:29.309Z,51.22
2016-12-01T04:58:29.009Z,51.41
2016-12-01T04:59:29.343Z,51.6
2016-12-01T05:00:29.357Z,51.79
2016-12-01T05:01:29.371Z,51.7
2016-12-01T05:02:29.071Z,51.79
2016-12-01T05:03:29.406Z,51.6
2016-12-01T05:04:29.419Z,51.22
2016-12-01T05:05:29.432Z,51.31
2016-12-01T05:06:29.133Z,50.93
2016-12-01T05:07:29.149Z,50.93
2016-12-01T05:08:29.163Z,51.22
2016-12-01T05:09:29.495Z,51.6
2016-12-01T05:10:29.193Z,51.6
2016-12-01T05:11:29.741Z,51.6
2016-12-01T05:12:29.227Z,51.03
2016-12-01T05:13:29.241Z,50.84
2016-12-01T05:14:29.257Z,50.56
2016-12-01T05:15:29.269Z,50.56
2016-12-01T05:16:29.284Z,51.12
2016-12-01T05:17:29.629Z,50.74
2016-12-01T05:18:29.315Z,50.93
2016-12-01T05:19:29.330Z,50.65
2016-12-01T05:20:29.666Z,50.56
2016-12-01T05:21:29.675Z,50.84
2016-12-01T05:22:29.692Z,50.84
2016-12-01T05:23:29.393Z,50.65
2016-12-01T05:24:29.723Z,50.65
2016-12-01T05:25:29.426Z,50.65
2016-12-01T05:26:29.437Z,50.37
2016-12-01T05:27:29.770Z,50.08
2016-12-01T05:28:29.785Z,50.18
2016-12-01T05:29:29.799Z,50.08
2016-12-01T05:30:29.813Z,49.32
2016-12-01T05:31:29.513Z,49.22
2016-12-01T05:32:29.530Z,49.51
2016-12-01T05:33:29.546Z,49.22
2016-12-01T05:34:29.877Z,49.22
2016-12-01T05:35:29.907Z,48.94
2016-12-01T05:36:29.909Z,49.22
2016-12-01T05:37:29.606Z,49.04
2016-12-01T05:38:29.940Z,48.75
2016-12-01T05:39:29.951Z,49.22
2016-12-01T05:40:29.970Z,49.04
2016-12-01T05:41:29.983Z,49.32
2016-12-01T05:42:30.002Z,48.66
2016-12-01T05:43:29.699Z,48.85
2016-12-01T05:44:30.027Z,49.13
2016-12-01T05:45:30.049Z,49.13
2016-12-01T05:46:30.066Z,48.75
2016-12-01T05:47:29.761Z,48.94
2016-12-01T05:48:29.773Z,49.22
2016-12-01T05:49:29.788Z,49.22
2016-12-01T05:50:29.814Z,48.85
2016-12-01T05:51:29.825Z,49.22
2016-12-01T05:52:29.837Z,49.22
2016-12-01T05:53:29.849Z,48.85
2016-12-01T05:54:30.182Z,49.04
2016-12-01T05:55:29.881Z,48.18
2016-12-01T05:56:29.897Z,48.75
2016-12-01T05:57:30.226Z,49.13
2016-12-01T05:58:30.242Z,48.56
2016-12-01T05:59:30.257Z,48.46
2016-12-01T06:00:30.272Z,48.27
2016-12-01T06:01:29.972Z,48.27
2016-12-01T06:02:29.992Z,48.37
2016-12-01T06:03:30.004Z,48.46
2016-12-01T06:04:30.336Z,48.27
2016-12-01T06:05:30.038Z,48.37
2016-12-01T06:06:30.050Z,48.46
2016-12-01T06:07:30.070Z,48.94
2016-12-01T06:08:30.079Z,49.6
2016-12-01T06:09:30.414Z,48.75
2016-12-01T06:10:30.429Z,48.66
2016-12-01T06:11:30.129Z,48.66
2016-12-01T06:12:30.160Z,49.13
2016-12-01T06:13:30.172Z,49.13
2016-12-01T06:14:30.175Z,49.13
2016-12-01T06:15:30.189Z,49.32
2016-12-01T06:16:30.204Z,48.85
2016-12-01T06:17:30.227Z,49.13
2016-12-01T06:18:30.551Z,48.56
2016-12-01T06:19:30.251Z,48.46
2016-12-01T06:20:30.268Z,48.27
2016-12-01T06:21:30.281Z,48.27
2016-12-01T06:22:30.616Z,48.3
2016-12-01T06:23:30.314Z,48.37
2016-12-01T06:24:30.644Z,48.18
2016-12-01T06:25:30.345Z,48.39
2016-12-01T06:26:30.677Z,48.18
2016-12-01T06:27:30.377Z,48.11
2016-12-01T06:28:30.393Z,48.75
2016-12-01T06:29:30.405Z,48.66
2016-12-01T06:30:30.424Z,48.46
2016-12-01T06:31:30.438Z,48.58
2016-12-01T06:32:30.771Z,48.49
2016-12-01T06:33:30.786Z,48.39
2016-12-01T06:34:30.487Z,48.49
2016-12-01T06:35:30.521Z,47.63
2016-12-01T06:36:30.831Z,47.73
2016-12-01T06:37:30.532Z,47.82
2016-12-01T06:38:30.545Z,48.01
2016-12-01T06:39:30.564Z,48.21
2016-12-01T06:40:30.894Z,48.21
2016-12-01T06:41:30.909Z,47.82
2016-12-01T06:42:30.611Z,48.27
2016-12-01T06:43:30.940Z,47.82
2016-12-01T06:44:30.957Z,47.73
2016-12-01T06:45:30.970Z,47.92
2016-12-01T06:46:30.989Z,47.92
2016-12-01T06:47:31.003Z,47.82
2016-12-01T06:48:31.018Z,47.82
2016-12-01T06:49:30.725Z,47.82
2016-12-01T06:50:31.047Z,47.92
2016-12-01T06:51:30.750Z,48.01
2016-12-01T06:52:30.768Z,47.06
2016-12-01T06:53:31.096Z,47.73
2016-12-01T06:54:30.794Z,47.25
2016-12-01T06:55:31.125Z,47.34
2016-12-01T06:56:30.826Z,47.06
2016-12-01T06:57:31.159Z,47.06
2016-12-01T06:58:30.858Z,46.97
2016-12-01T06:59:30.873Z,46.78
2016-12-01T07:00:31.208Z,46.78
2016-12-01T07:01:30.903Z,47.34
2016-12-01T07:02:31.243Z,47.34
2016-12-01T07:03:31.253Z,47.25
2016-12-01T07:04:30.954Z,46.88
2016-12-01T07:05:30.967Z,46.49
2016-12-01T07:06:30.981Z,46.97
2016-12-01T07:07:31.317Z,46.4
2016-12-01T07:08:31.013Z,46.88
2016-12-01T07:09:31.028Z,46.68
2016-12-01T07:10:31.365Z,46.59
2016-12-01T07:11:31.060Z,46.49
2016-12-01T07:12:31.392Z,45.92
2016-12-01T07:13:31.407Z,46.01
2016-12-01T07:14:31.424Z,46.59
2016-12-01T07:15:31.439Z,46.78
2016-12-01T07:16:31.138Z,46.11
2016-12-01T07:17:31.472Z,46.78
2016-12-01T07:18:31.171Z,46.01
2016-12-01T07:19:31.199Z,46.01
2016-12-01T07:20:31.199Z,46.01
2016-12-01T07:21:31.220Z,46.2
2016-12-01T07:22:31.232Z,46.78
2016-12-01T07:23:31.250Z,46.3
2016-12-01T07:24:31.263Z,46.68
2016-12-01T07:25:31.599Z,46.11
2016-12-01T07:26:31.613Z,45.73
2016-12-01T07:27:31.314Z,46.01
2016-12-01T07:28:31.329Z,46.4
2016-12-01T07:29:31.344Z,46.2
2016-12-01T07:30:31.362Z,46.2
2016-12-01T07:31:31.375Z,45.54
2016-12-01T07:32:31.397Z,46.01
2016-12-01T07:33:31.408Z,46.01
2016-12-01T07:34:31.421Z,45.64
2016-12-01T07:35:31.755Z,46.01
2016-12-01T07:36:31.769Z,45.92
2016-12-01T07:37:31.471Z,45.64
2016-12-01T07:38:31.489Z,45.75
2016-12-01T07:39:31.819Z,46.11
2016-12-01T07:40:31.835Z,45.85
2016-12-01T07:41:31.848Z,46.2
2016-12-01T07:42:31.865Z,46.01
2016-12-01T07:43:31.883Z,45.75
2016-12-01T07:44:31.898Z,46.04
2016-12-01T07:45:31.919Z,45.95
2016-12-01T07:46:31.929Z,46.14
2016-12-01T07:47:31.637Z,46.04
2016-12-01T07:48:31.645Z,45.92
2016-12-01T07:49:31.979Z,46.04
2016-12-01T07:50:31.677Z,46.23
2016-12-01T07:51:31.691Z,46.2
2016-12-01T07:52:31.712Z,46.04
2016-12-01T07:53:31.721Z,46.49
2016-12-01T07:54:32.059Z,46.14
2016-12-01T07:55:32.076Z,46.23
2016-12-01T07:56:31.771Z,46.51
2016-12-01T07:57:32.102Z,46.4
2016-12-01T07:58:32.119Z,46.88
2016-12-01T07:59:32.134Z,46.3
2016-12-01T08:00:32.150Z,46.01
2016-12-01T08:01:32.164Z,45.73
2016-12-01T08:02:32.183Z,46.11
2016-12-01T08:03:31.882Z,46.49
2016-12-01T08:04:31.897Z,46.97
2016-12-01T08:05:31.914Z,46.97
2016-12-01T08:06:32.249Z,46.97
2016-12-01T08:07:31.944Z,47.06
2016-12-01T08:08:32.276Z,47.06
2016-12-01T08:09:32.294Z,47.06
2016-12-01T08:10:32.310Z,47.16
2016-12-01T08:11:32.324Z,47.16
2016-12-01T08:12:32.344Z,47.06
2016-12-01T08:13:32.041Z,47.63
2016-12-01T08:14:32.056Z,46.97
2016-12-01T08:15:32.070Z,46.97
2016-12-01T08:16:32.407Z,47.34
2016-12-01T08:17:32.103Z,47.47
2016-12-01T08:18:32.116Z,47.94
2016-12-01T08:19:32.136Z,47.82
2016-12-01T08:20:32.165Z,47.92
2016-12-01T08:21:32.167Z,47.82
2016-12-01T08:22:32.183Z,47.73
2016-12-01T08:23:32.226Z,47.94
2016-12-01T08:24:32.273Z,47.94
2016-12-01T08:25:32.545Z,47.75
2016-12-01T08:26:32.560Z,47.94
2016-12-01T08:27:32.577Z,47.85
2016-12-01T08:28:32.591Z,48.03
2016-12-01T08:29:32.295Z,47.94
2016-12-01T08:30:32.624Z,47.75
2016-12-01T08:31:32.330Z,47.66
2016-12-01T08:32:32.341Z,47.75
2016-12-01T08:33:32.671Z,48.13
2016-12-01T08:34:32.691Z,47.75
2016-12-01T08:35:32.387Z,48.03
2016-12-01T08:36:32.405Z,48.23
2016-12-01T08:37:32.422Z,48.23
2016-12-01T08:38:32.755Z,48.13
2016-12-01T08:39:32.453Z,48.8
2016-12-01T08:40:32.475Z,47.85
2016-12-01T08:41:32.484Z,48.61
2016-12-01T08:42:32.499Z,48.23
2016-12-01T08:43:32.514Z,48.03
2016-12-01T08:44:32.532Z,48.13
2016-12-01T08:45:32.549Z,48.9
2016-12-01T08:46:32.887Z,48.03
2016-12-01T08:47:32.893Z,48.03
2016-12-01T08:48:32.911Z,48.13
2016-12-01T08:49:32.932Z,47.85
2016-12-01T08:50:32.943Z,48.03
2016-12-01T08:51:32.641Z,47.94
2016-12-01T08:52:32.659Z,48.23
2016-12-01T08:53:32.992Z,48.03
2016-12-01T08:54:33.009Z,47.66
2016-12-01T08:55:32.708Z,48.23
2016-12-01T08:56:33.041Z,48.03
2016-12-01T08:57:33.057Z,47.85
2016-12-01T08:58:32.756Z,48.03
2016-12-01T08:59:32.773Z,47.85
2016-12-01T09:00:33.106Z,48.23
2016-12-01T09:01:33.121Z,48.13
2016-12-01T09:02:33.135Z,47.85
2016-12-01T09:03:33.153Z,47.85
2016-12-01T09:04:32.851Z,47.85
2016-12-01T09:05:33.184Z,47.66
2016-12-01T09:06:32.888Z,47.09
2016-12-01T09:07:33.217Z,47.94
2016-12-01T09:08:32.918Z,47.47
2016-12-01T09:09:32.935Z,47.18
2016-12-01T09:10:32.949Z,46.89
2016-12-01T09:11:33.282Z,46.33
2016-12-01T09:12:33.305Z,46.8
2016-12-01T09:13:33.315Z,46.8
2016-12-01T09:14:33.015Z,46.14
2016-12-01T09:15:33.036Z,45.85
2016-12-01T09:16:33.049Z,45.66
2016-12-01T09:17:33.062Z,45.18
2016-12-01T09:18:33.405Z,45.75
2016-12-01T09:19:33.415Z,46.23
2016-12-01T09:20:33.112Z,45
2016-12-01T09:21:33.128Z,44.8
2016-12-01T09:22:33.146Z,44.92
2016-12-01T09:23:33.478Z,43.97
2016-12-01T09:24:33.493Z,44.04
2016-12-01T09:25:33.192Z,44.06
2016-12-01T09:26:33.545Z,43.4
2016-12-01T09:27:33.225Z,43.02
2016-12-01T09:28:33.559Z,43.11
2016-12-01T09:29:33.258Z,43.3
2016-12-01T09:30:33.294Z,43.49
2016-12-01T09:31:33.614Z,43.4
2016-12-01T09:32:33.308Z,43.11
2016-12-01T09:33:33.323Z,42.64
2016-12-01T09:34:33.342Z,42.35
2016-12-01T09:35:33.672Z,42.07
2016-12-01T09:36:33.375Z,42.92
2016-12-01T09:37:33.705Z,42.44
2016-12-01T09:38:33.723Z,43.11
2016-12-01T09:39:33.740Z,43.02
2016-12-01T09:40:33.757Z,42.44
2016-12-01T09:41:33.462Z,42.64
2016-12-01T09:42:33.788Z,43.3
2016-12-01T09:43:33.805Z,43.4
2016-12-01T09:44:33.507Z,42.92
2016-12-01T09:45:33.523Z,42.16
2016-12-01T09:46:33.539Z,42.25
2016-12-01T09:47:33.872Z,42.16
2016-12-01T09:48:33.578Z,42.35
2016-12-01T09:49:33.588Z,42.54
2016-12-01T09:50:33.922Z,42.35
2016-12-01T09:51:33.938Z,42.35
2016-12-01T09:52:33.961Z,42.44
2016-12-01T09:53:33.655Z,42.25
2016-12-01T09:54:33.988Z,42.44
2016-12-01T09:55:34.020Z,42.44
2016-12-01T09:56:33.709Z,42.44
2016-12-01T09:57:33.722Z,41.88
2016-12-01T09:58:34.054Z,41.97
2016-12-01T09:59:33.855Z,42.35
2016-12-01T10:00:34.089Z,41.21
2016-12-01T10:01:33.789Z,40.92
2016-12-01T10:02:34.122Z,41.69
2016-12-01T10:03:33.823Z,41.02
2016-12-01T10:04:33.839Z,41.21
2016-12-01T10:05:33.854Z,40.83
2016-12-01T10:06:33.872Z,40.54
2016-12-01T10:07:34.207Z,41.49
2016-12-01T10:08:33.905Z,40.37
2016-12-01T10:09:34.251Z,40.45
2016-12-01T10:10:33.939Z,40.26
2016-12-01T10:11:34.273Z,40.28
2016-12-01T10:12:34.292Z,40.37
2016-12-01T10:13:34.306Z,39.99
2016-12-01T10:14:34.044Z,40.28
2016-12-01T10:15:34.031Z,39.9
2016-12-01T10:16:34.361Z,40.09
2016-12-01T10:17:34.056Z,39.32
2016-12-01T10:18:34.072Z,38.95
2016-12-01T10:19:34.094Z,39.42
2016-12-01T10:20:34.426Z,38.66
2016-12-01T10:21:34.124Z,39.23
2016-12-01T10:22:34.142Z,39.51
2016-12-01T10:23:34.158Z,38.75
2016-12-01T10:24:34.492Z,38.56
2016-12-01T10:25:34.192Z,38.66
2016-12-01T10:26:34.208Z,38.47
2016-12-01T10:27:34.230Z,38.28
2016-12-01T10:28:34.247Z,37.99
2016-12-01T10:29:34.592Z,37.61
2016-12-01T10:30:34.287Z,37.8
2016-12-01T10:31:34.294Z,37.13
2016-12-01T10:32:34.314Z,37.32
2016-12-01T10:33:34.327Z,37.13
2016-12-01T10:34:34.819Z,36.94
2016-12-01T10:35:34.407Z,36.85
2016-12-01T10:36:34.716Z,36.66
2016-12-01T10:37:34.496Z,36.37
2016-12-01T10:38:34.576Z,36.58
2016-12-01T10:39:34.431Z,36.87
2016-12-01T10:40:34.763Z,36.01
2016-12-01T10:41:34.786Z,35.53
2016-12-01T10:42:34.799Z,35.63
2016-12-01T10:43:34.499Z,35.44
2016-12-01T10:44:34.832Z,35.25
2016-12-01T10:45:34.850Z,35.15
2016-12-01T10:46:34.866Z,35.44
2016-12-01T10:47:34.567Z,34.3
2016-12-01T10:48:34.901Z,33.82
2016-12-01T10:49:34.601Z,33.72
2016-12-01T10:50:34.943Z,32.48
2016-12-01T10:51:34.636Z,32.2
2016-12-01T10:52:34.971Z,32.96
2016-12-01T10:53:34.989Z,33.25
2016-12-01T10:54:35.012Z,31.82
2016-12-01T10:55:35.025Z,32.1
2016-12-01T10:56:34.724Z,31.53
2016-12-01T10:57:35.060Z,31.63
2016-12-01T10:58:34.770Z,31.72
2016-12-01T10:59:34.782Z,31.82
2016-12-01T11:00:35.114Z,30.68
2016-12-01T11:01:34.810Z,30.49
2016-12-01T11:02:34.828Z,29.91
2016-12-01T11:03:34.846Z,30
2016-12-01T11:04:35.179Z,30
2016-12-01T11:05:34.881Z,29.82
2016-12-01T11:06:34.910Z,29.15
2016-12-01T11:07:34.919Z,28.39
2016-12-01T11:08:35.250Z,28.96
2016-12-01T11:09:34.953Z,28.86
2016-12-01T11:10:35.283Z,28.29
2016-12-01T11:11:35.300Z,28.1
2016-12-01T11:12:35.003Z,27.81
2016-12-01T11:13:35.350Z,28.1
2016-12-01T11:14:35.045Z,28.2
2016-12-01T11:15:35.370Z,28.1
2016-12-01T11:16:35.074Z,27.44
2016-12-01T11:17:35.089Z,26.86
2016-12-01T11:18:35.108Z,26.86
2016-12-01T11:19:35.128Z,27.15
2016-12-01T11:20:35.459Z,27.34
2016-12-01T11:21:35.162Z,27.91
2016-12-01T11:22:35.177Z,27.72
2016-12-01T11:23:35.513Z,27.81
2016-12-01T11:24:35.531Z,26.96
2016-12-01T11:25:35.547Z,26.67
2016-12-01T11:26:35.251Z,26.58
2016-12-01T11:27:35.276Z,27.25
2016-12-01T11:28:35.282Z,26.58
2016-12-01T11:29:35.300Z,26.58
2016-12-01T11:30:35.321Z,26.29
2016-12-01T11:31:35.653Z,26.2
2016-12-01T11:32:35.355Z,25.72
2016-12-01T11:33:35.687Z,26.58
2016-12-01T11:34:35.705Z,26.77
2016-12-01T11:35:35.723Z,26.5
2016-12-01T11:36:35.742Z,26.12
2016-12-01T11:37:35.443Z,25.53
2016-12-01T11:38:35.780Z,25.64
2016-12-01T11:39:35.479Z,26.12
2016-12-01T11:40:35.815Z,25.54
2016-12-01T11:41:35.851Z,25.54
2016-12-01T11:42:35.848Z,25.35
2016-12-01T11:43:35.873Z,25.45
2016-12-01T11:44:35.883Z,25.45
2016-12-01T11:45:35.902Z,25.26
2016-12-01T11:46:35.922Z,25.54
2016-12-01T11:47:35.934Z,25.64
2016-12-01T11:48:35.639Z,24.97
2016-12-01T11:49:35.658Z,25.73
2016-12-01T11:50:35.992Z,25.64
2016-12-01T11:51:36.010Z,24.88
2016-12-01T11:52:35.710Z,25.54
2016-12-01T11:53:36.045Z,25.64
2016-12-01T11:54:35.747Z,25.73
2016-12-01T11:55:35.761Z,26.21
2016-12-01T11:56:36.097Z,25.26
2016-12-01T11:57:35.800Z,25.07
2016-12-01T11:58:36.142Z,24.88
2016-12-01T11:59:36.149Z,25.26
2016-12-01T12:00:35.853Z,24.68
2016-12-01T12:01:36.200Z,24.3
2016-12-01T12:02:36.202Z,25.26
2016-12-01T12:03:35.905Z,24.88
2016-12-01T12:04:36.243Z,24.4
2016-12-01T12:05:36.265Z,24.4
2016-12-01T12:06:35.961Z,24.11
2016-12-01T12:07:36.294Z,23.83
2016-12-01T12:08:35.995Z,24.11
2016-12-01T12:09:36.332Z,24.3
2016-12-01T12:10:36.032Z,25.16
2016-12-01T12:11:36.367Z,24.97
2016-12-01T12:12:36.066Z,24.78
2016-12-01T12:13:36.424Z,25.07
2016-12-01T12:14:36.120Z,25.26
2016-12-01T12:15:36.122Z,24.4
2016-12-01T12:16:36.454Z,23.73
2016-12-01T12:17:36.157Z,24.02
2016-12-01T12:18:36.174Z,24.11
2016-12-01T12:19:36.504Z,24.02
2016-12-01T12:20:36.234Z,23.64
2016-12-01T12:21:36.243Z,24.3
2016-12-01T12:22:36.564Z,24.21
2016-12-01T12:23:36.265Z,24.4
2016-12-01T12:24:36.597Z,24.21
2016-12-01T12:25:36.617Z,24.49
2016-12-01T12:26:36.319Z,24.68
2016-12-01T12:27:36.335Z,24.78
2016-12-01T12:28:36.355Z,25.07
2016-12-01T12:29:36.689Z,24.88
2016-12-01T12:30:36.389Z,24.49
2016-12-01T12:31:36.727Z,24.4
2016-12-01T12:32:36.427Z,25.26
2016-12-01T12:33:36.444Z,24.97
2016-12-01T12:34:36.462Z,25.16
2016-12-01T12:35:36.482Z,25.16
2016-12-01T12:36:36.499Z,25.26
2016-12-01T12:37:36.831Z,25.45
2016-12-01T12:38:36.852Z,25.64
2016-12-01T12:39:36.554Z,25.35
2016-12-01T12:40:36.889Z,26.5
2016-12-01T12:41:36.905Z,27.45
2016-12-01T12:42:36.926Z,26.5
2016-12-01T12:43:36.628Z,26.4
2016-12-01T12:44:36.962Z,26.31
2016-12-01T12:45:36.662Z,26.32
2016-12-01T12:46:36.678Z,26.42
2016-12-01T12:47:36.704Z,27.08
2016-12-01T12:48:36.716Z,26.32
2016-12-01T12:50:37.069Z,26.61
2016-12-01T12:51:37.087Z,26.61
2016-12-01T12:52:36.789Z,27.27
2016-12-01T12:53:36.807Z,28.13
2016-12-01T12:54:36.832Z,27.94
2016-12-01T12:55:36.845Z,27.27
2016-12-01T12:56:36.861Z,27.37